Time;durP1;ratioP1;P1;durP2;ratioP2;P2;SDS_P1;SDS_P2;PMS_P1;PMS_P2;Temp;Humidity;BMP_temperature;BMP_pressure;BME280_temperature;BME280_humidity;BME280_pressure;Samples;Min_cycle;Max_cycle;Signal;HPM_P1;HPM_P2
2023/11/15 00:01:58;;;;;;;19.52;9.38;;;;;;;11.44;100.00;100135.59;4975935;28;20550;-79
2023/11/15 00:04:26;;;;;;;17.77;9.02;;;;;;;11.64;100.00;100136.78;4978157;28;20050;-82
2023/11/15 00:06:53;;;;;;;18.48;8.93;;;;;;;11.55;100.00;100141.25;4977786;28;20051;-82
2023/11/15 00:09:19;;;;;;;17.83;9.20;;;;;;;11.70;100.00;100143.13;4977551;28;20070;-82
2023/11/15 00:11:46;;;;;;;20.77;9.57;;;;;;;11.62;100.00;100150.06;4981440;28;20058;-81
2023/11/15 00:14:13;;;;;;;16.48;9.02;;;;;;;11.80;100.00;100149.81;4982730;28;20154;-82
2023/11/15 00:16:42;;;;;;;18.10;9.82;;;;;;;11.79;100.00;100147.34;4982795;28;20050;-81
2023/11/15 00:19:08;;;;;;;28.98;9.40;;;;;;;11.73;100.00;100153.25;4976886;28;20051;-80
2023/11/15 00:21:35;;;;;;;18.23;9.07;;;;;;;11.68;100.00;100152.97;4977856;28;20141;-80
2023/11/15 00:24:02;;;;;;;14.63;8.55;;;;;;;11.72;100.00;100170.78;4977147;28;20100;-80
2023/11/15 00:26:29;;;;;;;16.38;8.10;;;;;;;11.73;100.00;100168.97;4977499;28;20054;-79
2023/11/15 00:28:55;;;;;;;19.48;8.50;;;;;;;11.71;100.00;100181.44;4977153;28;20077;-80
2023/11/15 00:31:23;;;;;;;18.55;8.98;;;;;;;11.88;100.00;100178.53;4980325;28;20058;-79
2023/11/15 00:33:51;;;;;;;20.55;8.07;;;;;;;11.91;100.00;100180.81;4977605;28;20062;-79
2023/11/15 00:36:19;;;;;;;18.08;7.53;;;;;;;11.80;100.00;100178.63;4977213;28;20133;-78
2023/11/15 00:38:46;;;;;;;19.77;7.75;;;;;;;11.88;100.00;100175.94;4972462;28;20051;-79
2023/11/15 00:41:12;;;;;;;18.95;7.60;;;;;;;11.93;100.00;100183.28;4976987;28;20050;-79
2023/11/15 00:43:39;;;;;;;18.75;7.38;;;;;;;11.87;100.00;100184.78;4978936;28;20146;-79
2023/11/15 00:46:06;;;;;;;18.13;7.40;;;;;;;11.61;100.00;100190.34;4978897;28;20061;-79
2023/11/15 00:48:51;;;;;;;20.80;7.35;;;;;;;11.59;100.00;100199.38;4979123;28;20047;-80
2023/11/15 00:51:18;;;;;;;14.60;6.75;;;;;;;11.76;100.00;100206.16;4955611;28;20066;-79
2023/11/15 00:53:47;;;;;;;19.77;7.32;;;;;;;11.68;100.00;100205.38;4980579;28;20055;-79
2023/11/15 00:56:14;;;;;;;17.88;6.97;;;;;;;11.81;100.00;100205.66;4984872;28;20049;-79
2023/11/15 00:58:42;;;;;;;18.33;7.25;;;;;;;11.71;100.00;100210.28;4992665;28;20043;-77
2023/11/15 01:01:10;;;;;;;18.85;6.97;;;;;;;11.84;100.00;100216.59;4982486;28;20129;-79
2023/11/15 01:03:40;;;;;;;16.65;6.40;;;;;;;11.72;100.00;100196.19;4976954;28;20050;-80
2023/11/15 01:06:07;;;;;;;17.38;6.15;;;;;;;11.81;100.00;100221.38;4975783;28;20055;-80
2023/11/15 01:08:34;;;;;;;15.88;6.68;;;;;;;11.86;100.00;100225.09;4976418;28;20050;-79
2023/11/15 01:11:01;;;;;;;22.15;6.30;;;;;;;11.76;100.00;100227.13;4976573;28;20509;-79
2023/11/15 01:13:28;;;;;;;20.77;6.40;;;;;;;11.80;100.00;100230.25;4968727;28;20103;-78
2023/11/15 01:15:54;;;;;;;14.43;6.38;;;;;;;11.96;100.00;100236.19;4977123;28;20059;-78
2023/11/15 01:18:22;;;;;;;14.85;6.50;;;;;;;11.89;100.00;100230.00;4979398;28;20046;-80
2023/11/15 01:20:49;;;;;;;15.52;7.05;;;;;;;11.89;100.00;100237.84;4979956;28;20588;-80
2023/11/15 01:23:15;;;;;;;20.55;7.03;;;;;;;12.01;100.00;100242.72;4979318;28;20457;-80
2023/11/15 01:25:45;;;;;;;18.60;6.85;;;;;;;12.10;100.00;100252.16;4978598;28;20580;-79
2023/11/15 01:28:12;;;;;;;19.48;6.85;;;;;;;11.91;100.00;100251.63;4979020;28;20429;-79
2023/11/15 01:30:39;;;;;;;18.58;6.97;;;;;;;11.89;100.00;100250.16;4979942;28;20082;-78
2023/11/15 01:33:05;;;;;;;20.05;6.75;;;;;;;11.96;100.00;100251.09;4979721;28;20051;-80
2023/11/15 01:35:32;;;;;;;21.88;7.97;;;;;;;11.93;100.00;100259.31;4969747;28;20572;-78
2023/11/15 01:37:59;;;;;;;18.17;7.88;;;;;;;12.04;100.00;100258.09;4976007;28;20325;-78
2023/11/15 01:40:33;;;;;;;13.70;6.50;;;;;;;12.01;100.00;100284.66;4979312;28;20105;-79
2023/11/15 01:43:01;;;;;;;15.05;6.47;;;;;;;12.05;100.00;100289.38;4979863;28;20051;-79
2023/11/15 01:45:28;;;;;;;15.75;6.53;;;;;;;12.17;100.00;100295.06;4974306;28;20188;-79
2023/11/15 01:47:55;;;;;;;20.17;6.80;;;;;;;12.05;100.00;100291.19;4980199;28;20046;-79
2023/11/15 01:50:23;;;;;;;14.48;6.72;;;;;;;12.09;100.00;100297.72;4979482;28;20142;-79
2023/11/15 01:52:50;;;;;;;17.83;6.28;;;;;;;11.98;100.00;100305.97;4979643;28;20054;-78
2023/11/15 01:55:21;;;;;;;22.25;7.20;;;;;;;12.00;100.00;100310.06;4980160;28;20395;-79
2023/11/15 01:57:48;;;;;;;19.10;7.15;;;;;;;12.02;100.00;100302.84;4977799;28;20082;-78
2023/11/15 02:00:19;;;;;;;19.08;6.82;;;;;;;12.09;100.00;100308.22;4978377;28;20355;-78
2023/11/15 02:02:46;;;;;;;15.93;7.45;;;;;;;11.99;100.00;100308.44;4978250;28;20074;-79
2023/11/15 02:05:13;;;;;;;20.33;6.78;;;;;;;12.10;100.00;100317.72;4979507;28;20330;-80
2023/11/15 02:07:40;;;;;;;15.40;7.45;;;;;;;12.17;100.00;100319.47;4979820;28;20054;-79
2023/11/15 02:10:08;;;;;;;13.32;6.90;;;;;;;11.95;100.00;100313.22;4971478;28;20105;-80
2023/11/15 02:12:34;;;;;;;23.25;7.20;;;;;;;11.97;100.00;100310.41;4978435;28;20560;-79
2023/11/15 02:15:01;;;;;;;19.70;7.30;;;;;;;12.03;100.00;100330.69;4975932;28;20552;-79
2023/11/15 02:17:29;;;;;;;21.80;7.55;;;;;;;12.02;100.00;100329.06;4978511;28;20066;-80
2023/11/15 02:19:56;;;;;;;20.20;7.60;;;;;;;12.00;100.00;100336.28;4979425;28;20462;-80
2023/11/15 02:22:26;;;;;;;16.08;6.65;;;;;;;12.17;100.00;100337.84;4980890;28;20145;-80
2023/11/15 02:24:54;;;;;;;20.33;8.15;;;;;;;12.16;100.00;100340.63;4987379;28;20485;-80
2023/11/15 02:27:21;;;;;;;13.43;6.75;;;;;;;12.17;100.00;100348.34;4979431;28;20133;-80
2023/11/15 02:29:48;;;;;;;24.58;7.25;;;;;;;12.24;100.00;100337.97;4979040;28;20055;-80
2023/11/15 02:32:15;;;;;;;18.05;6.85;;;;;;;12.31;100.00;100357.25;4978529;28;20073;-80
2023/11/15 02:34:42;;;;;;;20.85;6.80;;;;;;;12.19;100.00;100353.41;4978206;28;20050;-81
2023/11/15 02:37:09;;;;;;;19.10;7.13;;;;;;;12.19;100.00;100348.97;4978645;28;20051;-79
2023/11/15 02:39:35;;;;;;;18.60;6.22;;;;;;;12.16;100.00;100353.75;4979640;28;20051;-80
2023/11/15 02:42:04;;;;;;;20.75;7.10;;;;;;;12.27;100.00;100359.44;4977626;28;20070;-80
2023/11/15 02:44:32;;;;;;;19.60;7.00;;;;;;;12.29;100.00;100341.69;4979081;28;20485;-81
2023/11/15 02:46:58;;;;;;;14.90;5.80;;;;;;;12.18;100.00;100355.22;4982742;28;20055;-78
2023/11/15 02:49:26;;;;;;;16.92;6.47;;;;;;;12.29;100.00;100357.41;4981728;28;20042;-80
2023/11/15 02:51:52;;;;;;;17.40;6.38;;;;;;;12.34;100.00;100370.03;4977524;28;20098;-80
2023/11/15 02:54:19;;;;;;;18.75;7.35;;;;;;;12.38;100.00;100373.13;4978476;28;20444;-80
2023/11/15 02:56:46;;;;;;;14.40;7.18;;;;;;;12.52;100.00;100382.88;4978198;28;20089;-79
2023/11/15 02:59:13;;;;;;;14.32;7.07;;;;;;;12.52;100.00;100375.00;4976684;28;20047;-79
2023/11/15 03:01:46;;;;;;;17.92;6.40;;;;;;;12.75;100.00;100375.81;4979051;28;20170;-80
2023/11/15 03:04:13;;;;;;;16.15;5.97;;;;;;;12.39;100.00;100372.94;4978637;28;20054;-79
2023/11/15 03:06:40;;;;;;;16.92;6.25;;;;;;;12.35;100.00;100378.72;4978166;28;20085;-82
2023/11/15 03:09:07;;;;;;;22.23;6.50;;;;;;;12.22;100.00;100377.50;4977155;28;20114;-79
2023/11/15 03:11:34;;;;;;;13.57;6.40;;;;;;;12.24;100.00;100377.31;4977791;28;20047;-79
2023/11/15 03:14:01;;;;;;;16.33;6.57;;;;;;;12.17;100.00;100389.50;4977245;28;20050;-80
2023/11/15 03:16:29;;;;;;;21.67;6.80;;;;;;;12.30;100.00;100398.41;4977196;28;20065;-81
2023/11/15 03:18:56;;;;;;;21.52;6.07;;;;;;;12.17;100.00;100402.59;4977055;28;20043;-80
2023/11/15 03:21:22;;;;;;;17.95;6.05;;;;;;;12.07;100.00;100410.66;4976902;28;20086;-80
2023/11/15 03:23:49;;;;;;;16.48;5.97;;;;;;;12.12;100.00;100405.72;4976151;28;20094;-81
2023/11/15 03:26:15;;;;;;;20.70;7.07;;;;;;;12.24;100.00;100417.47;4976125;28;20130;-80
2023/11/15 03:28:42;;;;;;;21.55;7.88;;;;;;;12.07;100.00;100404.59;4975471;28;20076;-80
2023/11/15 03:31:10;;;;;;;16.17;5.65;;;;;;;12.17;100.00;100411.28;4975922;28;20089;-79
2023/11/15 03:33:38;;;;;;;11.48;6.13;;;;;;;12.34;100.00;100409.38;4975072;28;20054;-79
2023/11/15 03:36:05;;;;;;;14.85;5.75;;;;;;;12.23;100.00;100421.09;4976898;28;20134;-80
2023/11/15 03:38:32;;;;;;;20.45;5.60;;;;;;;12.43;100.00;100423.28;4978175;28;20157;-80
2023/11/15 03:40:59;;;;;;;20.80;5.78;;;;;;;12.05;100.00;100422.31;4977014;28;20066;-80
2023/11/15 03:43:25;;;;;;;18.23;5.70;;;;;;;11.99;100.00;100423.00;4977239;28;20462;-78
2023/11/15 03:45:54;;;;;;;19.05;5.40;;;;;;;12.16;100.00;100430.63;4977543;28;20077;-79
2023/11/15 03:48:21;;;;;;;15.40;5.90;;;;;;;12.33;100.00;100431.34;4976785;28;20051;-80
2023/11/15 03:50:49;;;;;;;15.25;5.78;;;;;;;12.27;100.00;100438.13;4962967;28;20078;-79
2023/11/15 03:53:16;;;;;;;13.48;5.55;;;;;;;12.12;100.00;100433.78;4959122;28;20521;-79
2023/11/15 03:55:43;;;;;;;11.20;4.85;;;;;;;12.26;100.00;100428.63;4976731;28;20055;-81
2023/11/15 03:58:09;;;;;;;17.98;5.80;;;;;;;12.14;100.00;100427.38;4978110;28;20130;-81
2023/11/15 04:00:36;;;;;;;18.67;5.30;;;;;;;12.14;100.00;100435.22;4978101;28;20081;-79
2023/11/15 04:03:03;;;;;;;14.38;5.45;;;;;;;12.27;100.00;100435.50;4977072;28;20055;-78
2023/11/15 04:05:29;;;;;;;12.30;5.13;;;;;;;12.24;100.00;100433.22;4976865;28;20145;-81
2023/11/15 04:07:57;;;;;;;15.40;5.50;;;;;;;12.25;100.00;100440.09;4977789;28;20613;-81
2023/11/15 04:10:24;;;;;;;14.85;5.68;;;;;;;12.15;100.00;100449.16;4976890;28;20193;-81
2023/11/15 04:12:54;;;;;;;18.35;5.60;;;;;;;11.98;100.00;100440.53;4977451;28;20086;-81
2023/11/15 04:15:22;;;;;;;12.48;5.22;;;;;;;12.13;100.00;100451.13;4978399;28;20101;-80
2023/11/15 04:17:48;;;;;;;15.68;5.50;;;;;;;12.23;100.00;100449.97;4972442;28;20110;-81
2023/11/15 04:20:15;;;;;;;16.63;5.60;;;;;;;12.15;100.00;100452.59;4978240;28;20082;-80
2023/11/15 04:22:42;;;;;;;21.25;6.10;;;;;;;11.94;100.00;100452.34;4977108;28;20111;-81
2023/11/15 04:25:10;;;;;;;18.45;5.43;;;;;;;12.09;100.00;100462.97;4978151;28;20097;-81
2023/11/15 04:27:36;;;;;;;23.35;6.25;;;;;;;12.01;100.00;100469.03;4972701;28;20425;-81
2023/11/15 04:30:04;;;;;;;21.40;6.07;;;;;;;12.15;100.00;100470.16;4977191;28;20106;-80
2023/11/15 04:32:30;;;;;;;12.68;5.43;;;;;;;12.02;100.00;100470.69;4970110;28;20054;-81
2023/11/15 04:34:57;;;;;;;18.63;5.53;;;;;;;12.02;100.00;100469.88;4978077;28;20441;-81
2023/11/15 04:37:25;;;;;;;16.92;5.80;;;;;;;12.10;100.00;100473.28;4966863;28;20069;-80
2023/11/15 04:39:51;;;;;;;24.75;6.60;;;;;;;11.98;100.00;100474.63;4971209;28;20510;-80
2023/11/15 04:42:20;;;;;;;15.93;5.18;;;;;;;12.09;100.00;100474.25;4977648;28;20476;-80
2023/11/15 04:44:46;;;;;;;20.50;5.80;;;;;;;12.09;100.00;100487.38;4978219;28;20062;-80
2023/11/15 04:47:14;;;;;;;21.77;5.32;;;;;;;12.06;100.00;100487.72;4976151;28;20106;-80
2023/11/15 04:49:42;;;;;;;22.40;5.70;;;;;;;11.97;100.00;100483.47;4973173;28;20050;-78
2023/11/15 04:52:09;;;;;;;21.30;5.50;;;;;;;12.17;100.00;100478.66;4979673;28;20047;-80
2023/11/15 04:54:36;;;;;;;16.08;7.00;;;;;;;12.09;100.00;100487.38;4981288;28;20086;-80
2023/11/15 04:57:03;;;;;;;12.75;5.65;;;;;;;12.03;100.00;100476.75;4976476;28;20133;-80
2023/11/15 04:59:31;;;;;;;17.33;5.40;;;;;;;12.08;100.00;100491.00;4978256;28;20042;-80
2023/11/15 05:01:58;;;;;;;17.58;6.00;;;;;;;12.02;100.00;100478.53;4981722;28;20054;-80
2023/11/15 05:04:25;;;;;;;25.10;5.63;;;;;;;12.05;100.00;100483.47;4987746;28;20047;-79
2023/11/15 05:06:54;;;;;;;23.73;5.38;;;;;;;11.52;100.00;100500.56;4980194;28;20054;-80
2023/11/15 05:09:21;;;;;;;16.65;5.43;;;;;;;11.73;100.00;100504.50;4981519;28;20074;-80
2023/11/15 05:11:47;;;;;;;18.95;5.53;;;;;;;11.71;100.00;100512.53;4981110;28;20086;-81
2023/11/15 05:14:14;;;;;;;17.23;5.50;;;;;;;11.75;100.00;100499.91;4981349;28;20085;-81
2023/11/15 05:16:42;;;;;;;16.13;5.10;;;;;;;11.91;100.00;100513.81;4976665;28;20125;-81
2023/11/15 05:19:09;;;;;;;18.95;5.72;;;;;;;11.74;100.00;100501.72;4981566;28;20054;-79
2023/11/15 05:21:35;;;;;;;16.80;5.30;;;;;;;11.62;100.00;100506.47;4980325;28;20053;-79
2023/11/15 05:24:02;;;;;;;19.58;5.32;;;;;;;11.58;100.00;100513.03;4980732;28;20061;-79
2023/11/15 05:26:29;;;;;;;14.18;4.95;;;;;;;11.58;100.00;100520.88;4977725;28;20043;-80
2023/11/15 05:28:55;;;;;;;18.42;5.38;;;;;;;11.60;100.00;100516.28;4981848;28;20149;-80
2023/11/15 05:31:23;;;;;;;19.10;5.40;;;;;;;11.12;100.00;100516.28;4980175;28;20528;-79
2023/11/15 05:33:51;;;;;;;16.67;4.80;;;;;;;11.18;100.00;100510.41;4980402;28;20078;-80
2023/11/15 05:36:17;;;;;;;18.20;5.80;;;;;;;11.00;100.00;100520.19;4979688;28;20085;-81
2023/11/15 05:38:44;;;;;;;19.60;5.40;;;;;;;11.22;100.00;100517.78;4981527;28;20047;-80
2023/11/15 05:41:10;;;;;;;30.30;6.38;;;;;;;10.92;100.00;100519.19;4980461;28;20081;-80
2023/11/15 05:43:37;;;;;;;20.45;5.07;;;;;;;10.82;100.00;100529.03;4989548;28;20089;-79
2023/11/15 05:46:04;;;;;;;16.70;5.47;;;;;;;10.85;100.00;100533.13;4990173;28;20398;-78
2023/11/15 05:48:32;;;;;;;25.35;5.72;;;;;;;11.12;100.00;100535.44;4990039;28;20059;-79
2023/11/15 05:51:01;;;;;;;17.63;4.78;;;;;;;10.84;100.00;100532.31;4991173;28;20068;-79
2023/11/15 05:53:28;;;;;;;16.40;5.80;;;;;;;10.92;100.00;100534.09;4982319;28;20077;-80
2023/11/15 05:55:55;;;;;;;22.77;5.85;;;;;;;11.00;100.00;100541.97;4990590;28;20070;-79
2023/11/15 05:58:22;;;;;;;13.27;5.20;;;;;;;10.91;100.00;100537.69;4990408;28;20108;-80
2023/11/15 06:00:48;;;;;;;13.60;5.30;;;;;;;10.89;100.00;100539.66;4982672;28;20050;-78
2023/11/15 06:03:15;;;;;;;16.98;5.50;;;;;;;11.08;100.00;100541.16;4978873;28;20066;-78
2023/11/15 06:05:42;;;;;;;16.13;5.95;;;;;;;11.00;100.00;100543.75;4978694;28;20085;-79
2023/11/15 06:08:10;;;;;;;16.48;6.45;;;;;;;10.89;100.00;100540.47;4978685;28;20139;-79
2023/11/15 06:10:37;;;;;;;18.10;6.25;;;;;;;10.97;100.00;100543.09;4978898;28;20125;-79
2023/11/15 06:13:06;;;;;;;18.15;6.03;;;;;;;10.95;100.00;100526.75;4978915;28;20078;-80
2023/11/15 06:15:32;;;;;;;25.33;6.53;;;;;;;10.91;100.00;100538.50;4978981;28;20192;-80
2023/11/15 06:17:59;;;;;;;15.05;5.75;;;;;;;10.85;100.00;100549.66;4979646;28;20118;-80
2023/11/15 06:20:26;;;;;;;22.98;6.13;;;;;;;10.90;100.00;100557.81;4979288;28;20125;-80
2023/11/15 06:22:52;;;;;;;15.77;6.35;;;;;;;11.20;100.00;100555.59;4980491;28;20471;-81
2023/11/15 06:25:21;;;;;;;21.45;6.53;;;;;;;11.00;100.00;100549.81;4979302;28;20086;-79
2023/11/15 06:27:48;;;;;;;16.30;6.72;;;;;;;11.07;100.00;100561.28;4978209;28;20418;-80
2023/11/15 06:30:17;;;;;;;23.08;7.90;;;;;;;10.96;100.00;100551.94;4979117;28;20058;-80
2023/11/15 06:32:44;;;;;;;18.27;6.15;;;;;;;10.99;100.00;100550.81;4979516;28;20137;-79
2023/11/15 06:35:18;;;;;;;18.40;6.60;;;;;;;11.05;100.00;100544.91;4978094;28;20057;-79
2023/11/15 06:37:45;;;;;;;18.52;6.40;;;;;;;11.06;100.00;100541.31;4977749;28;20078;-79
2023/11/15 06:40:14;;;;;;;13.45;5.90;;;;;;;11.13;100.00;100551.97;4972162;28;20090;-79
2023/11/15 06:42:42;;;;;;;20.65;6.75;;;;;;;11.23;100.00;100569.19;4976835;28;20050;-79
2023/11/15 06:45:10;;;;;;;18.70;6.95;;;;;;;11.14;100.00;100564.09;4978573;28;20055;-80
2023/11/15 06:47:37;;;;;;;19.60;6.65;;;;;;;11.06;100.00;100566.69;4977266;28;20050;-80
2023/11/15 06:50:05;;;;;;;18.55;7.00;;;;;;;11.00;100.00;100572.56;4979491;28;20117;-80
2023/11/15 06:52:32;;;;;;;16.02;6.30;;;;;;;11.14;100.00;100570.16;4977481;28;20054;-80
2023/11/15 06:54:59;;;;;;;19.40;6.45;;;;;;;11.05;100.00;100568.50;4977560;28;20058;-80
2023/11/15 06:57:26;;;;;;;23.17;6.93;;;;;;;11.11;100.00;100586.19;4982068;28;20081;-80
2023/11/15 06:59:54;;;;;;;22.98;6.50;;;;;;;11.11;100.00;100586.19;4982225;28;20110;-79
2023/11/15 07:02:21;;;;;;;18.50;6.53;;;;;;;11.10;100.00;100583.72;4980757;28;20065;-80
2023/11/15 07:04:48;;;;;;;22.25;6.78;;;;;;;11.10;100.00;100586.34;4982079;28;20054;-80
2023/11/15 07:07:14;;;;;;;19.65;6.78;;;;;;;11.22;100.00;100598.16;4979676;28;20078;-79
2023/11/15 07:09:41;;;;;;;14.18;6.85;;;;;;;11.20;100.00;100589.66;4979789;28;20129;-80
2023/11/15 07:12:21;;;;;;;20.13;6.00;;;;;;;11.17;100.00;100598.63;4974706;28;20078;-79
2023/11/15 07:14:52;;;;;;;18.95;6.30;;;;;;;11.22;100.00;100604.22;4977795;28;20111;-79
2023/11/15 07:17:25;;;;;;;17.10;6.35;;;;;;;11.16;100.00;100610.09;4977788;28;20050;-80
2023/11/15 07:19:52;;;;;;;16.65;6.22;;;;;;;11.10;100.00;100600.25;4979925;28;20055;-80
2023/11/15 07:22:22;;;;;;;21.33;6.22;;;;;;;11.10;100.00;100597.63;4979669;28;20074;-81
2023/11/15 07:24:53;;;;;;;14.52;5.85;;;;;;;11.28;100.00;100613.25;4978604;28;20047;-82
2023/11/15 07:27:20;;;;;;;18.45;5.75;;;;;;;11.21;100.00;100622.72;4980726;28;20179;-82
2023/11/15 07:29:51;;;;;;;18.55;5.63;;;;;;;11.29;100.00;100627.97;4972164;28;20129;-81
2023/11/15 07:32:21;;;;;;;16.00;5.47;;;;;;;11.33;100.00;100629.28;4979329;28;20051;-81
2023/11/15 07:34:49;;;;;;;23.55;6.05;;;;;;;11.24;100.00;100627.63;4979022;28;20377;-81
2023/11/15 07:37:15;;;;;;;19.63;5.95;;;;;;;11.29;100.00;100634.03;4975227;28;20050;-79
2023/11/15 07:39:42;;;;;;;19.20;5.75;;;;;;;11.28;100.00;100621.91;4968465;28;20450;-77
2023/11/15 07:42:09;;;;;;;17.17;6.00;;;;;;;11.38;100.00;100626.97;4973653;28;20115;-79
2023/11/15 07:44:35;;;;;;;21.42;5.88;;;;;;;11.26;100.00;100634.34;4977797;28;20421;-79
2023/11/15 07:47:02;;;;;;;19.77;5.90;;;;;;;11.27;100.00;100650.88;4976463;28;20073;-78
2023/11/15 07:49:30;;;;;;;17.55;5.78;;;;;;;11.32;100.00;100645.16;4978396;28;20138;-80
2023/11/15 07:51:56;;;;;;;15.48;5.70;;;;;;;11.27;100.00;100648.28;4975192;28;20117;-79
2023/11/15 07:54:23;;;;;;;18.13;6.05;;;;;;;11.30;100.00;100646.16;4979079;28;20077;-79
2023/11/15 07:56:50;;;;;;;17.85;5.93;;;;;;;11.26;100.00;100657.94;4977926;28;20054;-79
2023/11/15 07:59:16;;;;;;;15.55;5.13;;;;;;;11.37;100.00;100658.59;4979451;28;20142;-79
2023/11/15 08:01:43;;;;;;;16.08;5.53;;;;;;;11.46;100.00;100671.53;4977926;28;20043;-79
2023/11/15 08:04:11;;;;;;;24.77;5.78;;;;;;;11.52;100.00;100672.72;4978358;28;20054;-80
2023/11/15 08:06:40;;;;;;;19.65;5.72;;;;;;;11.42;100.00;100666.78;4979276;28;20059;-78
2023/11/15 08:09:08;;;;;;;14.55;5.20;;;;;;;11.47;100.00;100665.31;4979340;28;20074;-80
2023/11/15 08:11:35;;;;;;;23.95;5.72;;;;;;;11.52;100.00;100681.38;4981136;28;20089;-79
2023/11/15 08:14:06;;;;;;;18.40;6.60;;;;;;;11.64;100.00;100671.44;4983795;28;20055;-78
2023/11/15 08:16:33;;;;;;;20.70;5.40;;;;;;;11.63;100.00;100686.31;4976615;28;20055;-78
2023/11/15 08:18:59;;;;;;;15.25;5.22;;;;;;;11.71;100.00;100677.66;4982788;28;20142;-79
2023/11/15 08:21:26;;;;;;;18.70;5.80;;;;;;;11.71;100.00;100688.16;4982641;28;20544;-78
2023/11/15 08:23:54;;;;;;;17.73;7.70;;;;;;;11.90;100.00;100687.03;4981944;28;20085;-79
2023/11/15 08:26:21;;;;;;;19.77;5.18;;;;;;;11.91;100.00;100693.91;4982887;28;20078;-78
2023/11/15 08:28:48;;;;;;;16.33;5.07;;;;;;;11.76;100.00;100685.03;4975152;28;20055;-78
2023/11/15 08:31:15;;;;;;;12.82;4.68;;;;;;;11.87;100.00;100696.03;4976175;28;20075;-79
2023/11/15 08:33:44;;;;;;;19.08;5.45;;;;;;;11.93;100.00;100697.19;4976652;28;20061;-81
2023/11/15 08:36:12;;;;;;;19.17;5.40;;;;;;;12.08;100.00;100700.00;4976217;28;20454;-79
2023/11/15 08:38:38;;;;;;;19.80;5.20;;;;;;;12.04;100.00;100689.00;4976424;28;20597;-79
2023/11/15 08:41:07;;;;;;;15.45;4.80;;;;;;;12.08;100.00;100700.00;4977430;28;20138;-79
2023/11/15 08:43:33;;;;;;;16.38;4.13;;;;;;;12.20;100.00;100704.75;4976823;28;20058;-80
2023/11/15 08:46:01;;;;;;;19.58;5.13;;;;;;;12.26;100.00;100701.47;4980129;28;20090;-78
2023/11/15 08:48:27;;;;;;;16.13;4.97;;;;;;;12.37;100.00;100704.72;4978681;28;20058;-79
2023/11/15 08:50:54;;;;;;;17.45;5.32;;;;;;;12.37;100.00;100697.66;4973825;28;20051;-79
2023/11/15 08:53:25;;;;;;;21.05;5.22;;;;;;;12.36;100.00;100695.22;4979139;28;20525;-80
2023/11/15 08:55:51;;;;;;;15.02;5.07;;;;;;;12.47;99.68;100697.50;4978599;28;20085;-79
2023/11/15 08:58:22;;;;;;;20.10;5.00;;;;;;;12.48;99.62;100701.75;4979737;28;20115;-79
2023/11/15 09:00:49;;;;;;;12.95;4.13;;;;;;;12.44;99.20;100696.03;4981037;28;20046;-79
2023/11/15 09:03:16;;;;;;;19.00;5.10;;;;;;;12.52;98.75;100703.06;4981342;28;20129;-79
2023/11/15 09:05:44;;;;;;;16.77;5.18;;;;;;;12.45;98.13;100683.72;4981292;28;20062;-80
2023/11/15 09:08:11;;;;;;;24.15;6.07;;;;;;;12.42;98.64;100713.75;4981389;28;20047;-78
2023/11/15 09:10:37;;;;;;;13.60;4.75;;;;;;;12.44;98.40;100711.78;4979710;28;20125;-79
2023/11/15 09:13:08;;;;;;;20.83;6.85;;;;;;;12.69;98.14;100715.19;4981213;28;20209;-79
2023/11/15 09:15:36;;;;;;;17.48;4.95;;;;;;;12.83;97.37;100719.72;4974877;28;20082;-80
2023/11/15 09:18:04;;;;;;;15.82;5.15;;;;;;;12.90;96.79;100722.50;4982759;28;20061;-79
2023/11/15 09:20:32;;;;;;;14.27;4.90;;;;;;;13.03;95.95;100725.41;4981516;28;20047;-79
2023/11/15 09:22:59;;;;;;;16.00;4.65;;;;;;;13.14;95.39;100727.69;4981030;28;20051;-79
2023/11/15 09:25:27;;;;;;;15.45;4.70;;;;;;;12.96;94.81;100730.53;4981521;28;20110;-79
2023/11/15 09:27:56;;;;;;;14.35;5.13;;;;;;;13.07;94.45;100731.16;4973199;28;20055;-78
2023/11/15 09:30:25;;;;;;;14.90;4.40;;;;;;;13.18;93.42;100738.72;4971133;28;20121;-78
2023/11/15 09:32:54;;;;;;;18.15;4.75;;;;;;;13.38;93.38;100737.28;4977751;28;20215;-79
2023/11/15 09:35:23;;;;;;;14.95;4.80;;;;;;;13.54;92.74;100739.03;4978789;28;20055;-78
2023/11/15 09:37:51;;;;;;;12.90;4.35;;;;;;;13.54;91.95;100739.03;4980141;28;20485;-78
2023/11/15 09:40:18;;;;;;;11.15;4.20;;;;;;;13.32;91.28;100739.78;4984282;28;20234;-78
2023/11/15 09:42:47;;;;;;;17.33;4.32;;;;;;;13.32;90.87;100727.44;4971782;28;20086;-78
2023/11/15 09:45:17;;;;;;;14.20;4.60;;;;;;;13.47;91.32;100746.78;4975048;28;20069;-80
2023/11/15 09:47:46;;;;;;;16.40;4.38;;;;;;;13.33;90.99;100738.78;4981049;28;20054;-79
2023/11/15 09:50:18;;;;;;;12.25;4.97;;;;;;;13.16;90.93;100738.06;4978609;28;20089;-78
2023/11/15 09:52:46;;;;;;;11.68;4.45;;;;;;;13.32;91.19;100743.22;4979853;28;20086;-78
2023/11/15 09:55:13;;;;;;;16.30;4.05;;;;;;;13.21;90.90;100730.50;4979318;28;20051;-78
2023/11/15 09:57:40;;;;;;;13.32;4.40;;;;;;;13.44;90.90;100728.72;4978317;28;20142;-78
2023/11/15 10:00:09;;;;;;;13.85;4.50;;;;;;;13.08;91.21;100743.31;4978734;28;20055;-78
2023/11/15 10:02:37;;;;;;;13.52;4.43;;;;;;;13.17;91.01;100735.25;4977973;28;20155;-78
2023/11/15 10:05:18;;;;;;;11.95;4.13;;;;;;;13.18;90.88;100736.06;4978560;28;20509;-78
2023/11/15 10:07:47;;;;;;;13.27;3.85;;;;;;;13.41;90.94;100744.84;4977562;28;20265;-77
2023/11/15 10:10:18;;;;;;;16.83;4.47;;;;;;;13.29;90.40;100739.13;4979409;28;20124;-79
2023/11/15 10:12:46;;;;;;;14.30;4.30;;;;;;;13.60;90.52;100741.78;4979894;28;20065;-79
2023/11/15 10:15:13;;;;;;;12.15;4.25;;;;;;;13.55;89.57;100736.22;4978905;28;20047;-79
2023/11/15 10:17:42;;;;;;;14.73;4.35;;;;;;;13.74;89.59;100749.91;4980957;28;20552;-78
2023/11/15 10:20:30;;;;;;;10.05;4.65;;;;;;;13.88;89.71;100754.44;4979833;28;20050;-79
2023/11/15 10:22:57;;;;;;;14.75;4.38;;;;;;;14.11;88.88;100746.56;4979820;28;20047;-79
2023/11/15 10:25:25;;;;;;;9.05;4.05;;;;;;;14.01;87.74;100741.53;4980206;28;20082;-79
2023/11/15 10:27:52;;;;;;;13.07;4.40;;;;;;;13.79;86.95;100739.69;4980638;28;20431;-78
2023/11/15 10:30:22;;;;;;;12.38;5.07;;;;;;;14.00;87.33;100753.03;4980175;28;20042;-78
2023/11/15 10:32:50;;;;;;;10.23;4.40;;;;;;;14.07;87.37;100755.78;4979423;28;20055;-78
2023/11/15 10:35:28;;;;;;;16.63;4.93;;;;;;;13.99;87.33;100742.69;4980831;28;20533;-79
2023/11/15 10:37:55;;;;;;;13.68;5.28;;;;;;;13.66;87.03;100744.72;4980721;28;20110;-79
2023/11/15 10:40:25;;;;;;;14.32;4.60;;;;;;;13.63;87.71;100745.88;4980879;28;20429;-79
2023/11/15 10:42:53;;;;;;;12.68;4.53;;;;;;;13.73;88.02;100753.53;4980635;28;20408;-78
2023/11/15 10:45:23;;;;;;;14.15;4.93;;;;;;;13.78;87.29;100748.56;4980125;28;20062;-78
2023/11/15 10:47:56;;;;;;;14.10;4.88;;;;;;;13.65;87.16;100748.34;4980962;28;20043;-79
2023/11/15 10:50:23;;;;;;;14.02;4.65;;;;;;;13.71;87.33;100745.81;4979945;28;20137;-78
2023/11/15 10:52:52;;;;;;;14.68;4.68;;;;;;;13.82;87.52;100734.06;4979992;28;20051;-79
2023/11/15 10:55:20;;;;;;;22.40;4.90;;;;;;;13.58;87.32;100748.22;4981067;28;20368;-78
2023/11/15 10:57:47;;;;;;;14.80;5.90;;;;;;;13.75;87.91;100759.44;4978456;28;20055;-78
2023/11/15 11:00:17;;;;;;;12.52;4.63;;;;;;;13.92;88.11;100747.81;4977288;28;20417;-77
2023/11/15 11:02:45;;;;;;;20.08;5.80;;;;;;;13.84;87.58;100745.25;4975761;28;20082;-78
2023/11/15 11:05:16;;;;;;;11.55;4.13;;;;;;;13.86;87.35;100753.78;4976635;28;20078;-78
2023/11/15 11:07:55;;;;;;;12.50;4.22;;;;;;;13.81;87.20;100764.00;4976522;28;20121;-78
2023/11/15 11:10:28;;;;;;;13.98;4.47;;;;;;;13.57;87.86;100767.59;4977045;28;20437;-78
2023/11/15 11:12:58;;;;;;;15.68;4.60;;;;;;;13.42;88.02;100764.06;4976058;28;20046;-78
2023/11/15 11:15:30;;;;;;;14.05;4.00;;;;;;;13.44;88.03;100757.63;4976277;28;20061;-78